sensor_id;sensor_type;location;lat;lon;timestamp;temperature;humidity
29663;DHT22;16578;53.266;7.920;2023-09-08T00:02:00;24.00;58.80
29663;DHT22;16578;53.266;7.920;2023-09-08T00:04:25;24.00;58.90
29663;DHT22;16578;53.266;7.920;2023-09-08T00:06:51;24.00;58.80
29663;DHT22;16578;53.266;7.920;2023-09-08T00:09:17;23.90;58.80
29663;DHT22;16578;53.266;7.920;2023-09-08T00:11:42;23.90;58.90
29663;DHT22;16578;53.266;7.920;2023-09-08T00:14:08;23.90;58.80
29663;DHT22;16578;53.266;7.920;2023-09-08T00:16:33;23.90;58.80
29663;DHT22;16578;53.266;7.920;2023-09-08T00:18:59;23.90;58.80
29663;DHT22;16578;53.266;7.920;2023-09-08T00:21:25;23.90;58.80
29663;DHT22;16578;53.266;7.920;2023-09-08T00:23:52;23.90;58.90
29663;DHT22;16578;53.266;7.920;2023-09-08T00:26:17;23.90;58.90
29663;DHT22;16578;53.266;7.920;2023-09-08T00:28:43;23.90;58.90
29663;DHT22;16578;53.266;7.920;2023-09-08T00:31:08;23.90;58.80
29663;DHT22;16578;53.266;7.920;2023-09-08T00:33:34;23.80;58.90
29663;DHT22;16578;53.266;7.920;2023-09-08T00:35:59;23.80;58.90
29663;DHT22;16578;53.266;7.920;2023-09-08T00:38:25;23.80;58.90
29663;DHT22;16578;53.266;7.920;2023-09-08T00:40:51;23.80;59.70
29663;DHT22;16578;53.266;7.920;2023-09-08T00:43:17;23.70;59.00
29663;DHT22;16578;53.266;7.920;2023-09-08T00:45:43;23.70;59.10
29663;DHT22;16578;53.266;7.920;2023-09-08T00:48:09;23.70;59.00
29663;DHT22;16578;53.266;7.920;2023-09-08T00:50:36;23.70;59.10
29663;DHT22;16578;53.266;7.920;2023-09-08T00:53:04;23.70;59.00
29663;DHT22;16578;53.266;7.920;2023-09-08T00:55:31;23.70;59.10
29663;DHT22;16578;53.266;7.920;2023-09-08T00:57:57;23.60;59.20
29663;DHT22;16578;53.266;7.920;2023-09-08T01:00:24;23.60;59.20
29663;DHT22;16578;53.266;7.920;2023-09-08T01:02:50;23.60;59.20
29663;DHT22;16578;53.266;7.920;2023-09-08T01:05:16;23.60;59.20
29663;DHT22;16578;53.266;7.920;2023-09-08T01:07:42;23.50;59.20
29663;DHT22;16578;53.266;7.920;2023-09-08T01:10:08;23.50;59.30
29663;DHT22;16578;53.266;7.920;2023-09-08T01:12:34;23.50;59.40
29663;DHT22;16578;53.266;7.920;2023-09-08T01:15:03;23.50;59.40
29663;DHT22;16578;53.266;7.920;2023-09-08T01:17:32;23.50;59.50
29663;DHT22;16578;53.266;7.920;2023-09-08T01:26:02;23.50;59.60
29663;DHT22;16578;53.266;7.920;2023-09-08T01:28:30;23.40;59.60
29663;DHT22;16578;53.266;7.920;2023-09-08T01:30:56;23.30;59.60
29663;DHT22;16578;53.266;7.920;2023-09-08T01:33:22;23.30;59.60
29663;DHT22;16578;53.266;7.920;2023-09-08T01:35:49;23.30;59.70
29663;DHT22;16578;53.266;7.920;2023-09-08T01:38:14;23.30;59.70
29663;DHT22;16578;53.266;7.920;2023-09-08T01:40:40;23.30;59.70
29663;DHT22;16578;53.266;7.920;2023-09-08T01:43:05;23.30;59.70
29663;DHT22;16578;53.266;7.920;2023-09-08T01:45:31;23.20;59.70
29663;DHT22;16578;53.266;7.920;2023-09-08T01:47:57;23.30;59.80
29663;DHT22;16578;53.266;7.920;2023-09-08T01:50:22;23.20;59.80
29663;DHT22;16578;53.266;7.920;2023-09-08T01:52:50;23.20;59.80
29663;DHT22;16578;53.266;7.920;2023-09-08T01:55:16;23.20;60.00
29663;DHT22;16578;53.266;7.920;2023-09-08T01:57:42;23.20;60.00
29663;DHT22;16578;53.266;7.920;2023-09-08T02:00:09;23.20;60.10
29663;DHT22;16578;53.266;7.920;2023-09-08T02:02:34;23.10;60.00
29663;DHT22;16578;53.266;7.920;2023-09-08T02:05:00;23.10;59.90
29663;DHT22;16578;53.266;7.920;2023-09-08T02:07:25;23.10;60.00
29663;DHT22;16578;53.266;7.920;2023-09-08T02:09:51;23.10;60.10
29663;DHT22;16578;53.266;7.920;2023-09-08T02:12:17;23.00;60.20
29663;DHT22;16578;53.266;7.920;2023-09-08T02:14:42;23.00;60.30
29663;DHT22;16578;53.266;7.920;2023-09-08T02:17:08;23.00;60.40
29663;DHT22;16578;53.266;7.920;2023-09-08T02:19:33;23.00;60.40
29663;DHT22;16578;53.266;7.920;2023-09-08T02:21:59;23.00;60.50
29663;DHT22;16578;53.266;7.920;2023-09-08T02:24:24;23.00;60.50
29663;DHT22;16578;53.266;7.920;2023-09-08T02:26:50;23.00;60.50
29663;DHT22;16578;53.266;7.920;2023-09-08T02:29:15;22.90;60.40
29663;DHT22;16578;53.266;7.920;2023-09-08T02:31:41;22.90;60.60
29663;DHT22;16578;53.266;7.920;2023-09-08T02:34:07;22.90;60.70
29663;DHT22;16578;53.266;7.920;2023-09-08T02:36:32;22.80;60.70
29663;DHT22;16578;53.266;7.920;2023-09-08T02:38:58;22.80;60.80
29663;DHT22;16578;53.266;7.920;2023-09-08T02:41:23;22.80;60.80
29663;DHT22;16578;53.266;7.920;2023-09-08T02:43:49;22.80;60.90
29663;DHT22;16578;53.266;7.920;2023-09-08T02:46:15;22.70;61.00
29663;DHT22;16578;53.266;7.920;2023-09-08T02:48:41;22.70;61.00
29663;DHT22;16578;53.266;7.920;2023-09-08T02:51:07;22.60;60.90
29663;DHT22;16578;53.266;7.920;2023-09-08T02:53:33;22.70;61.10
29663;DHT22;16578;53.266;7.920;2023-09-08T02:55:59;22.60;61.10
29663;DHT22;16578;53.266;7.920;2023-09-08T02:58:26;22.60;61.30
29663;DHT22;16578;53.266;7.920;2023-09-08T03:00:52;22.60;61.40
29663;DHT22;16578;53.266;7.920;2023-09-08T03:03:18;22.50;61.50
29663;DHT22;16578;53.266;7.920;2023-09-08T03:05:44;22.50;61.60
29663;DHT22;16578;53.266;7.920;2023-09-08T03:08:10;22.50;61.60
29663;DHT22;16578;53.266;7.920;2023-09-08T03:10:35;22.50;61.70
29663;DHT22;16578;53.266;7.920;2023-09-08T03:13:01;22.40;61.70
29663;DHT22;16578;53.266;7.920;2023-09-08T03:15:27;22.40;61.90
29663;DHT22;16578;53.266;7.920;2023-09-08T03:17:57;22.30;61.90
29663;DHT22;16578;53.266;7.920;2023-09-08T03:20:27;22.30;62.20
29663;DHT22;16578;53.266;7.920;2023-09-08T03:22:54;22.30;62.30
29663;DHT22;16578;53.266;7.920;2023-09-08T03:25:20;22.30;62.30
29663;DHT22;16578;53.266;7.920;2023-09-08T03:27:45;22.30;62.30
29663;DHT22;16578;53.266;7.920;2023-09-08T03:30:11;22.20;62.40
29663;DHT22;16578;53.266;7.920;2023-09-08T03:32:37;22.20;62.40
29663;DHT22;16578;53.266;7.920;2023-09-08T03:35:03;22.20;62.40
29663;DHT22;16578;53.266;7.920;2023-09-08T03:37:32;22.20;62.50
29663;DHT22;16578;53.266;7.920;2023-09-08T03:39:57;22.20;62.60
29663;DHT22;16578;53.266;7.920;2023-09-08T03:42:22;22.10;62.70
29663;DHT22;16578;53.266;7.920;2023-09-08T03:44:48;22.10;62.70
29663;DHT22;16578;53.266;7.920;2023-09-08T03:47:13;22.10;62.70
29663;DHT22;16578;53.266;7.920;2023-09-08T03:49:39;22.10;62.90
29663;DHT22;16578;53.266;7.920;2023-09-08T03:52:05;22.00;62.90
29663;DHT22;16578;53.266;7.920;2023-09-08T03:54:30;22.00;63.00
29663;DHT22;16578;53.266;7.920;2023-09-08T03:56:56;22.00;63.20
29663;DHT22;16578;53.266;7.920;2023-09-08T03:59:21;22.00;63.20
29663;DHT22;16578;53.266;7.920;2023-09-08T04:01:47;22.00;63.20
29663;DHT22;16578;53.266;7.920;2023-09-08T04:04:13;21.90;63.30
29663;DHT22;16578;53.266;7.920;2023-09-08T04:06:38;21.90;63.30
29663;DHT22;16578;53.266;7.920;2023-09-08T04:09:04;21.90;63.50
29663;DHT22;16578;53.266;7.920;2023-09-08T04:11:29;21.90;63.60
29663;DHT22;16578;53.266;7.920;2023-09-08T04:13:55;21.90;63.60
29663;DHT22;16578;53.266;7.920;2023-09-08T04:16:20;21.80;63.70
29663;DHT22;16578;53.266;7.920;2023-09-08T04:18:46;21.80;63.90
29663;DHT22;16578;53.266;7.920;2023-09-08T04:21:11;21.80;64.10
29663;DHT22;16578;53.266;7.920;2023-09-08T04:23:37;21.80;64.20
29663;DHT22;16578;53.266;7.920;2023-09-08T04:26:02;21.70;64.10
29663;DHT22;16578;53.266;7.920;2023-09-08T04:28:28;21.70;64.20
29663;DHT22;16578;53.266;7.920;2023-09-08T04:30:53;21.70;64.30
29663;DHT22;16578;53.266;7.920;2023-09-08T04:33:19;21.70;64.30
29663;DHT22;16578;53.266;7.920;2023-09-08T04:35:44;21.60;64.30
29663;DHT22;16578;53.266;7.920;2023-09-08T04:38:10;21.60;64.40
29663;DHT22;16578;53.266;7.920;2023-09-08T04:40:36;21.60;64.60
29663;DHT22;16578;53.266;7.920;2023-09-08T04:43:05;21.60;64.70
29663;DHT22;16578;53.266;7.920;2023-09-08T04:45:30;21.60;64.90
29663;DHT22;16578;53.266;7.920;2023-09-08T04:47:56;21.60;65.00
29663;DHT22;16578;53.266;7.920;2023-09-08T04:50:21;21.60;65.00
29663;DHT22;16578;53.266;7.920;2023-09-08T04:52:47;21.50;65.10
29663;DHT22;16578;53.266;7.920;2023-09-08T04:55:12;21.50;65.10
29663;DHT22;16578;53.266;7.920;2023-09-08T04:57:38;21.50;65.30
29663;DHT22;16578;53.266;7.920;2023-09-08T05:00:04;21.50;65.30
29663;DHT22;16578;53.266;7.920;2023-09-08T05:02:29;21.50;65.40
29663;DHT22;16578;53.266;7.920;2023-09-08T05:04:55;21.50;65.50
29663;DHT22;16578;53.266;7.920;2023-09-08T05:07:20;21.40;65.60
29663;DHT22;16578;53.266;7.920;2023-09-08T05:09:46;21.40;65.60
29663;DHT22;16578;53.266;7.920;2023-09-08T05:12:12;21.40;65.60
29663;DHT22;16578;53.266;7.920;2023-09-08T05:14:37;21.40;65.60
29663;DHT22;16578;53.266;7.920;2023-09-08T05:17:03;21.40;65.60
29663;DHT22;16578;53.266;7.920;2023-09-08T05:19:30;21.40;65.60
29663;DHT22;16578;53.266;7.920;2023-09-08T05:21:55;21.30;65.60
29663;DHT22;16578;53.266;7.920;2023-09-08T05:24:21;21.30;65.80
29663;DHT22;16578;53.266;7.920;2023-09-08T05:26:47;21.30;65.90
29663;DHT22;16578;53.266;7.920;2023-09-08T05:29:12;21.30;65.90
29663;DHT22;16578;53.266;7.920;2023-09-08T05:31:38;21.20;66.70
29663;DHT22;16578;53.266;7.920;2023-09-08T05:34:04;21.20;65.90
29663;DHT22;16578;53.266;7.920;2023-09-08T05:36:30;21.20;65.90
29663;DHT22;16578;53.266;7.920;2023-09-08T05:38:56;21.20;66.10
29663;DHT22;16578;53.266;7.920;2023-09-08T05:41:22;21.20;66.20
29663;DHT22;16578;53.266;7.920;2023-09-08T05:43:47;21.20;66.20
29663;DHT22;16578;53.266;7.920;2023-09-08T05:46:13;21.20;66.30
29663;DHT22;16578;53.266;7.920;2023-09-08T05:48:39;21.10;66.40
29663;DHT22;16578;53.266;7.920;2023-09-08T05:51:04;21.10;66.60
29663;DHT22;16578;53.266;7.920;2023-09-08T05:53:32;21.10;66.60
29663;DHT22;16578;53.266;7.920;2023-09-08T05:55:58;21.10;66.70
29663;DHT22;16578;53.266;7.920;2023-09-08T05:58:23;21.10;66.80
29663;DHT22;16578;53.266;7.920;2023-09-08T06:00:52;21.10;66.80
29663;DHT22;16578;53.266;7.920;2023-09-08T06:03:18;21.10;66.90
29663;DHT22;16578;53.266;7.920;2023-09-08T06:05:44;21.10;67.00
29663;DHT22;16578;53.266;7.920;2023-09-08T06:08:10;21.10;67.20
29663;DHT22;16578;53.266;7.920;2023-09-08T06:10:35;21.20;67.30
29663;DHT22;16578;53.266;7.920;2023-09-08T06:13:01;21.20;67.50
29663;DHT22;16578;53.266;7.920;2023-09-08T06:15:27;21.20;67.60
29663;DHT22;16578;53.266;7.920;2023-09-08T06:17:52;21.30;67.70
29663;DHT22;16578;53.266;7.920;2023-09-08T06:20:18;21.30;67.70
29663;DHT22;16578;53.266;7.920;2023-09-08T06:22:43;21.40;67.70
29663;DHT22;16578;53.266;7.920;2023-09-08T06:25:09;21.40;67.70
29663;DHT22;16578;53.266;7.920;2023-09-08T06:27:35;21.50;67.70
29663;DHT22;16578;53.266;7.920;2023-09-08T06:30:00;21.50;67.80
29663;DHT22;16578;53.266;7.920;2023-09-08T06:32:26;21.60;67.80
29663;DHT22;16578;53.266;7.920;2023-09-08T06:34:51;21.60;67.80
29663;DHT22;16578;53.266;7.920;2023-09-08T06:37:17;21.70;67.80
29663;DHT22;16578;53.266;7.920;2023-09-08T06:39:42;21.70;67.90
29663;DHT22;16578;53.266;7.920;2023-09-08T06:42:08;21.80;67.90
29663;DHT22;16578;53.266;7.920;2023-09-08T06:44:33;21.80;67.80
29663;DHT22;16578;53.266;7.920;2023-09-08T06:46:59;21.90;67.90
29663;DHT22;16578;53.266;7.920;2023-09-08T06:49:24;21.90;67.90
29663;DHT22;16578;53.266;7.920;2023-09-08T06:51:50;22.00;67.90
29663;DHT22;16578;53.266;7.920;2023-09-08T06:54:15;22.00;67.60
29663;DHT22;16578;53.266;7.920;2023-09-08T06:56:41;22.10;67.60
29663;DHT22;16578;53.266;7.920;2023-09-08T06:59:06;22.20;67.80
29663;DHT22;16578;53.266;7.920;2023-09-08T07:01:32;22.20;67.80
29663;DHT22;16578;53.266;7.920;2023-09-08T07:03:57;22.30;67.80
29663;DHT22;16578;53.266;7.920;2023-09-08T07:06:23;22.30;67.80
29663;DHT22;16578;53.266;7.920;2023-09-08T07:08:49;22.40;67.70
29663;DHT22;16578;53.266;7.920;2023-09-08T07:11:16;22.50;67.80
29663;DHT22;16578;53.266;7.920;2023-09-08T07:13:41;22.60;67.90
29663;DHT22;16578;53.266;7.920;2023-09-08T07:16:07;22.60;67.90
29663;DHT22;16578;53.266;7.920;2023-09-08T07:18:32;22.70;67.60
29663;DHT22;16578;53.266;7.920;2023-09-08T07:21:03;22.70;67.40
29663;DHT22;16578;53.266;7.920;2023-09-08T07:23:29;22.70;67.40
29663;DHT22;16578;53.266;7.920;2023-09-08T07:25:55;22.80;67.40
29663;DHT22;16578;53.266;7.920;2023-09-08T07:28:20;23.00;67.30
29663;DHT22;16578;53.266;7.920;2023-09-08T07:30:46;23.00;67.10
29663;DHT22;16578;53.266;7.920;2023-09-08T07:33:11;23.10;66.90
29663;DHT22;16578;53.266;7.920;2023-09-08T07:35:38;23.20;66.90
29663;DHT22;16578;53.266;7.920;2023-09-08T07:38:04;23.30;66.90
29663;DHT22;16578;53.266;7.920;2023-09-08T07:40:31;23.30;66.90
29663;DHT22;16578;53.266;7.920;2023-09-08T07:42:56;23.40;66.80
29663;DHT22;16578;53.266;7.920;2023-09-08T07:45:22;23.50;66.70
29663;DHT22;16578;53.266;7.920;2023-09-08T07:47:48;23.60;66.50
29663;DHT22;16578;53.266;7.920;2023-09-08T07:50:24;23.70;66.60
29663;DHT22;16578;53.266;7.920;2023-09-08T07:52:51;23.80;66.60
29663;DHT22;16578;53.266;7.920;2023-09-08T07:55:17;23.90;66.60
29663;DHT22;16578;53.266;7.920;2023-09-08T07:57:45;24.00;66.40
29663;DHT22;16578;53.266;7.920;2023-09-08T08:00:14;24.10;66.40
29663;DHT22;16578;53.266;7.920;2023-09-08T08:02:46;24.20;66.30
29663;DHT22;16578;53.266;7.920;2023-09-08T08:05:12;24.30;66.10
29663;DHT22;16578;53.266;7.920;2023-09-08T08:07:38;24.40;66.00
29663;DHT22;16578;53.266;7.920;2023-09-08T08:10:05;24.50;65.70
29663;DHT22;16578;53.266;7.920;2023-09-08T08:12:31;24.60;65.90
29663;DHT22;16578;53.266;7.920;2023-09-08T08:14:57;24.70;65.90
29663;DHT22;16578;53.266;7.920;2023-09-08T08:17:24;24.80;65.80
29663;DHT22;16578;53.266;7.920;2023-09-08T08:19:51;24.90;65.30
29663;DHT22;16578;53.266;7.920;2023-09-08T08:22:16;25.00;65.20
29663;DHT22;16578;53.266;7.920;2023-09-08T08:24:42;25.10;64.90
29663;DHT22;16578;53.266;7.920;2023-09-08T08:27:07;25.20;64.50
29663;DHT22;16578;53.266;7.920;2023-09-08T08:29:33;25.40;64.50
29663;DHT22;16578;53.266;7.920;2023-09-08T08:31:58;25.40;64.30
29663;DHT22;16578;53.266;7.920;2023-09-08T08:34:24;25.60;64.00
29663;DHT22;16578;53.266;7.920;2023-09-08T08:36:50;25.70;63.70
29663;DHT22;16578;53.266;7.920;2023-09-08T08:39:15;25.80;63.50
29663;DHT22;16578;53.266;7.920;2023-09-08T08:41:41;25.90;63.50
29663;DHT22;16578;53.266;7.920;2023-09-08T08:44:07;26.00;63.50
29663;DHT22;16578;53.266;7.920;2023-09-08T08:46:34;26.10;62.90
29663;DHT22;16578;53.266;7.920;2023-09-08T08:49:03;26.20;62.80
29663;DHT22;16578;53.266;7.920;2023-09-08T08:51:30;26.30;62.50
29663;DHT22;16578;53.266;7.920;2023-09-08T08:53:57;26.40;62.60
29663;DHT22;16578;53.266;7.920;2023-09-08T08:56:23;26.50;62.70
29663;DHT22;16578;53.266;7.920;2023-09-08T08:58:49;26.70;62.20
29663;DHT22;16578;53.266;7.920;2023-09-08T09:01:18;26.70;61.90
29663;DHT22;16578;53.266;7.920;2023-09-08T09:03:49;26.90;62.50
29663;DHT22;16578;53.266;7.920;2023-09-08T09:06:15;27.00;62.10
29663;DHT22;16578;53.266;7.920;2023-09-08T09:08:43;27.00;63.10
29663;DHT22;16578;53.266;7.920;2023-09-08T09:11:10;27.20;61.90
29663;DHT22;16578;53.266;7.920;2023-09-08T09:13:36;27.30;61.80
29663;DHT22;16578;53.266;7.920;2023-09-08T09:16:01;27.30;61.30
29663;DHT22;16578;53.266;7.920;2023-09-08T09:18:29;27.40;60.90
29663;DHT22;16578;53.266;7.920;2023-09-08T09:20:59;27.50;61.10
29663;DHT22;16578;53.266;7.920;2023-09-08T09:23:33;27.60;60.90
29663;DHT22;16578;53.266;7.920;2023-09-08T09:26:00;27.70;60.30
29663;DHT22;16578;53.266;7.920;2023-09-08T09:28:28;27.70;60.80
29663;DHT22;16578;53.266;7.920;2023-09-08T09:30:55;27.80;60.90
29663;DHT22;16578;53.266;7.920;2023-09-08T09:33:21;27.90;60.90
29663;DHT22;16578;53.266;7.920;2023-09-08T09:35:52;27.90;60.50
29663;DHT22;16578;53.266;7.920;2023-09-08T09:38:19;28.00;60.00
29663;DHT22;16578;53.266;7.920;2023-09-08T09:40:46;28.10;60.10
29663;DHT22;16578;53.266;7.920;2023-09-08T09:43:12;28.10;60.20
29663;DHT22;16578;53.266;7.920;2023-09-08T09:45:39;28.20;60.00
29663;DHT22;16578;53.266;7.920;2023-09-08T09:48:05;28.30;60.10
29663;DHT22;16578;53.266;7.920;2023-09-08T09:53:07;28.30;60.10
29663;DHT22;16578;53.266;7.920;2023-09-08T09:55:33;28.40;59.60
29663;DHT22;16578;53.266;7.920;2023-09-08T09:58:01;28.40;59.60
29663;DHT22;16578;53.266;7.920;2023-09-08T10:00:29;28.50;59.90
29663;DHT22;16578;53.266;7.920;2023-09-08T10:02:56;28.50;59.90
29663;DHT22;16578;53.266;7.920;2023-09-08T10:05:23;28.60;59.80
29663;DHT22;16578;53.266;7.920;2023-09-08T10:07:49;28.60;59.60
29663;DHT22;16578;53.266;7.920;2023-09-08T10:10:16;28.70;59.60
29663;DHT22;16578;53.266;7.920;2023-09-08T10:12:45;28.70;59.40
29663;DHT22;16578;53.266;7.920;2023-09-08T10:15:12;28.80;59.40
29663;DHT22;16578;53.266;7.920;2023-09-08T10:17:40;28.80;59.50
29663;DHT22;16578;53.266;7.920;2023-09-08T10:20:07;28.90;59.40
29663;DHT22;16578;53.266;7.920;2023-09-08T10:22:38;28.90;59.30
29663;DHT22;16578;53.266;7.920;2023-09-08T10:25:06;28.90;59.10
29663;DHT22;16578;53.266;7.920;2023-09-08T10:27:33;29.00;59.20
29663;DHT22;16578;53.266;7.920;2023-09-08T10:30:00;29.00;58.70
29663;DHT22;16578;53.266;7.920;2023-09-08T10:32:27;29.00;58.90
29663;DHT22;16578;53.266;7.920;2023-09-08T10:34:53;29.10;59.20
29663;DHT22;16578;53.266;7.920;2023-09-08T10:37:21;29.10;58.80
29663;DHT22;16578;53.266;7.920;2023-09-08T10:39:47;29.20;58.80
29663;DHT22;16578;53.266;7.920;2023-09-08T10:44:43;29.30;58.70
29663;DHT22;16578;53.266;7.920;2023-09-08T10:47:09;29.30;58.50
29663;DHT22;16578;53.266;7.920;2023-09-08T10:49:35;29.30;57.90
29663;DHT22;16578;53.266;7.920;2023-09-08T10:52:08;29.40;57.90
29663;DHT22;16578;53.266;7.920;2023-09-08T10:54:44;29.30;57.80
29663;DHT22;16578;53.266;7.920;2023-09-08T10:57:25;29.40;57.40
29663;DHT22;16578;53.266;7.920;2023-09-08T10:59:55;29.40;57.80
29663;DHT22;16578;53.266;7.920;2023-09-08T11:02:49;29.40;57.60
29663;DHT22;16578;53.266;7.920;2023-09-08T11:05:21;29.50;57.10
29663;DHT22;16578;53.266;7.920;2023-09-08T11:07:47;29.40;57.10
29663;DHT22;16578;53.266;7.920;2023-09-08T11:10:15;29.40;56.90
29663;DHT22;16578;53.266;7.920;2023-09-08T11:12:40;29.40;57.20
29663;DHT22;16578;53.266;7.920;2023-09-08T11:15:07;29.40;57.70
29663;DHT22;16578;53.266;7.920;2023-09-08T11:17:35;29.40;57.50
29663;DHT22;16578;53.266;7.920;2023-09-08T11:20:02;29.50;57.60
29663;DHT22;16578;53.266;7.920;2023-09-08T11:22:34;29.50;57.30
29663;DHT22;16578;53.266;7.920;2023-09-08T11:25:01;29.40;56.70
29663;DHT22;16578;53.266;7.920;2023-09-08T11:27:30;29.40;56.70
29663;DHT22;16578;53.266;7.920;2023-09-08T11:29:56;29.40;56.80
29663;DHT22;16578;53.266;7.920;2023-09-08T11:32:22;29.40;56.60
29663;DHT22;16578;53.266;7.920;2023-09-08T11:34:48;29.40;56.60
29663;DHT22;16578;53.266;7.920;2023-09-08T11:37:15;29.40;56.60
29663;DHT22;16578;53.266;7.920;2023-09-08T11:39:42;29.40;56.50
29663;DHT22;16578;53.266;7.920;2023-09-08T11:42:09;29.40;56.70
29663;DHT22;16578;53.266;7.920;2023-09-08T11:44:35;29.40;56.40
29663;DHT22;16578;53.266;7.920;2023-09-08T11:47:03;29.40;56.30
29663;DHT22;16578;53.266;7.920;2023-09-08T11:49:40;29.40;55.90
29663;DHT22;16578;53.266;7.920;2023-09-08T11:52:06;29.50;55.80
29663;DHT22;16578;53.266;7.920;2023-09-08T11:54:33;29.50;56.10
29663;DHT22;16578;53.266;7.920;2023-09-08T11:57:04;29.50;55.80
29663;DHT22;16578;53.266;7.920;2023-09-08T11:59:35;29.50;55.20
29663;DHT22;16578;53.266;7.920;2023-09-08T12:02:01;29.60;55.50
29663;DHT22;16578;53.266;7.920;2023-09-08T12:04:26;29.60;55.50
29663;DHT22;16578;53.266;7.920;2023-09-08T12:06:53;29.60;55.50
29663;DHT22;16578;53.266;7.920;2023-09-08T12:09:21;29.60;55.30
29663;DHT22;16578;53.266;7.920;2023-09-08T12:11:47;29.70;55.10
29663;DHT22;16578;53.266;7.920;2023-09-08T12:14:13;29.70;55.20
29663;DHT22;16578;53.266;7.920;2023-09-08T12:16:40;29.80;55.40
29663;DHT22;16578;53.266;7.920;2023-09-08T12:19:06;29.80;55.10
29663;DHT22;16578;53.266;7.920;2023-09-08T12:21:42;29.80;55.00
29663;DHT22;16578;53.266;7.920;2023-09-08T12:24:19;29.80;54.90
29663;DHT22;16578;53.266;7.920;2023-09-08T12:26:44;29.90;55.10
29663;DHT22;16578;53.266;7.920;2023-09-08T12:29:13;29.90;54.90
29663;DHT22;16578;53.266;7.920;2023-09-08T12:31:39;29.90;54.60
29663;DHT22;16578;53.266;7.920;2023-09-08T12:34:04;29.90;54.40
29663;DHT22;16578;53.266;7.920;2023-09-08T12:36:30;29.90;54.40
29663;DHT22;16578;53.266;7.920;2023-09-08T12:38:55;29.90;54.20
29663;DHT22;16578;53.266;7.920;2023-09-08T12:41:21;30.00;54.00
29663;DHT22;16578;53.266;7.920;2023-09-08T12:43:46;30.00;53.70
29663;DHT22;16578;53.266;7.920;2023-09-08T12:46:12;30.00;53.50
29663;DHT22;16578;53.266;7.920;2023-09-08T12:48:38;30.00;53.50
29663;DHT22;16578;53.266;7.920;2023-09-08T12:51:03;30.00;53.50
29663;DHT22;16578;53.266;7.920;2023-09-08T12:53:34;30.10;53.40
29663;DHT22;16578;53.266;7.920;2023-09-08T12:56:02;30.10;53.10
29663;DHT22;16578;53.266;7.920;2023-09-08T12:58:28;30.10;53.00
29663;DHT22;16578;53.266;7.920;2023-09-08T13:00:54;30.10;52.70
29663;DHT22;16578;53.266;7.920;2023-09-08T13:03:19;30.20;52.70
29663;DHT22;16578;53.266;7.920;2023-09-08T13:05:45;30.20;52.80
29663;DHT22;16578;53.266;7.920;2023-09-08T13:08:10;30.30;53.10
29663;DHT22;16578;53.266;7.920;2023-09-08T13:10:36;30.30;52.80
29663;DHT22;16578;53.266;7.920;2023-09-08T13:13:03;30.40;53.00
29663;DHT22;16578;53.266;7.920;2023-09-08T13:15:29;30.40;53.10
29663;DHT22;16578;53.266;7.920;2023-09-08T13:17:55;30.40;53.10
29663;DHT22;16578;53.266;7.920;2023-09-08T13:20:21;30.40;53.10
29663;DHT22;16578;53.266;7.920;2023-09-08T13:22:47;30.40;52.80
29663;DHT22;16578;53.266;7.920;2023-09-08T13:25:13;30.40;52.40
29663;DHT22;16578;53.266;7.920;2023-09-08T13:27:41;30.40;52.40
29663;DHT22;16578;53.266;7.920;2023-09-08T13:30:14;30.40;52.60
29663;DHT22;16578;53.266;7.920;2023-09-08T13:32:41;30.40;52.20
29663;DHT22;16578;53.266;7.920;2023-09-08T13:35:08;30.40;52.70
29663;DHT22;16578;53.266;7.920;2023-09-08T13:37:33;30.40;52.30
29663;DHT22;16578;53.266;7.920;2023-09-08T13:40:06;30.40;52.00
29663;DHT22;16578;53.266;7.920;2023-09-08T13:42:31;30.40;51.90
29663;DHT22;16578;53.266;7.920;2023-09-08T13:44:57;30.40;52.10
29663;DHT22;16578;53.266;7.920;2023-09-08T13:47:22;30.40;51.90
29663;DHT22;16578;53.266;7.920;2023-09-08T13:49:48;30.40;52.00
29663;DHT22;16578;53.266;7.920;2023-09-08T13:52:14;30.40;51.80
29663;DHT22;16578;53.266;7.920;2023-09-08T13:54:39;30.40;51.30
29663;DHT22;16578;53.266;7.920;2023-09-08T13:57:05;30.40;51.50
29663;DHT22;16578;53.266;7.920;2023-09-08T13:59:31;30.50;51.60
29663;DHT22;16578;53.266;7.920;2023-09-08T14:01:57;30.40;52.30
29663;DHT22;16578;53.266;7.920;2023-09-08T14:04:24;30.40;51.20
29663;DHT22;16578;53.266;7.920;2023-09-08T14:06:50;30.40;51.30
29663;DHT22;16578;53.266;7.920;2023-09-08T14:09:16;30.50;51.40
29663;DHT22;16578;53.266;7.920;2023-09-08T14:11:41;30.50;51.00
29663;DHT22;16578;53.266;7.920;2023-09-08T14:14:07;30.50;50.80
29663;DHT22;16578;53.266;7.920;2023-09-08T14:16:33;30.50;51.20
29663;DHT22;16578;53.266;7.920;2023-09-08T14:18:58;30.50;51.70
29663;DHT22;16578;53.266;7.920;2023-09-08T14:21:24;30.50;51.60
29663;DHT22;16578;53.266;7.920;2023-09-08T14:23:49;30.50;51.60
29663;DHT22;16578;53.266;7.920;2023-09-08T14:26:15;30.60;51.10
29663;DHT22;16578;53.266;7.920;2023-09-08T14:28:40;30.50;51.30
29663;DHT22;16578;53.266;7.920;2023-09-08T14:31:06;30.60;51.20
29663;DHT22;16578;53.266;7.920;2023-09-08T14:33:31;30.60;51.00
29663;DHT22;16578;53.266;7.920;2023-09-08T14:35:57;30.50;50.70
29663;DHT22;16578;53.266;7.920;2023-09-08T14:38:23;30.50;50.70
29663;DHT22;16578;53.266;7.920;2023-09-08T14:41:02;30.50;50.30
29663;DHT22;16578;53.266;7.920;2023-09-08T14:43:28;30.60;50.30
29663;DHT22;16578;53.266;7.920;2023-09-08T14:45:55;30.50;50.20
29663;DHT22;16578;53.266;7.920;2023-09-08T14:48:23;30.50;50.10
29663;DHT22;16578;53.266;7.920;2023-09-08T14:50:48;30.50;50.30
29663;DHT22;16578;53.266;7.920;2023-09-08T14:53:14;30.60;50.20
29663;DHT22;16578;53.266;7.920;2023-09-08T14:55:39;30.50;50.40
29663;DHT22;16578;53.266;7.920;2023-09-08T14:58:05;30.60;50.30
29663;DHT22;16578;53.266;7.920;2023-09-08T15:00:31;30.60;49.90
29663;DHT22;16578;53.266;7.920;2023-09-08T15:02:57;30.60;49.80
29663;DHT22;16578;53.266;7.920;2023-09-08T15:05:23;30.60;50.30
29663;DHT22;16578;53.266;7.920;2023-09-08T15:07:48;30.60;50.20
29663;DHT22;16578;53.266;7.920;2023-09-08T15:10:14;30.60;50.90
29663;DHT22;16578;53.266;7.920;2023-09-08T15:12:39;30.60;50.70
29663;DHT22;16578;53.266;7.920;2023-09-08T15:15:05;30.60;50.30
29663;DHT22;16578;53.266;7.920;2023-09-08T15:17:31;30.60;50.50
29663;DHT22;16578;53.266;7.920;2023-09-08T15:19:57;30.60;50.40
29663;DHT22;16578;53.266;7.920;2023-09-08T15:22:24;30.60;50.10
29663;DHT22;16578;53.266;7.920;2023-09-08T15:24:49;30.60;49.90
29663;DHT22;16578;53.266;7.920;2023-09-08T15:27:15;30.60;50.10
29663;DHT22;16578;53.266;7.920;2023-09-08T15:29:41;30.60;49.90
29663;DHT22;16578;53.266;7.920;2023-09-08T15:32:06;30.60;50.00
29663;DHT22;16578;53.266;7.920;2023-09-08T15:34:33;30.50;50.00
29663;DHT22;16578;53.266;7.920;2023-09-08T15:36:58;30.60;50.00